Time;durP1;ratioP1;P1;durP2;ratioP2;P2;SDS_P1;SDS_P2;PMS_P1;PMS_P2;Temp;Humidity;BMP_temperature;BMP_pressure;BME280_temperature;BME280_humidity;BME280_pressure;Samples;Min_cycle;Max_cycle;Signal;HPM_P1;HPM_P2
2024/03/06 00:04:44;;;;;;;;;;;;;;;20.23;37.05;95464.88;10510989;28;1964;-66
2024/03/06 00:09:45;;;;;;;;;;;;;;;20.21;37.29;95462.53;10516979;28;2404;-67
2024/03/06 00:14:45;;;;;;;;;;;;;;;20.21;36.92;95467.78;10512022;28;2081;-67
2024/03/06 00:19:45;;;;;;;;;;;;;;;20.18;37.07;95473.56;10510656;28;1962;-67
2024/03/06 00:24:46;;;;;;;;;;;;;;;20.17;36.89;95469.34;10511611;28;2042;-67
2024/03/06 00:29:47;;;;;;;;;;;;;;;20.16;37.11;95469.63;10507039;28;2227;-66
2024/03/06 00:34:47;;;;;;;;;;;;;;;20.15;37.10;95458.31;10505698;28;2101;-67
2024/03/06 00:39:47;;;;;;;;;;;;;;;20.14;37.10;95461.22;10507924;28;2058;-66
2024/03/06 00:44:48;;;;;;;;;;;;;;;20.12;37.05;95458.09;10510100;28;2323;-67
2024/03/06 00:49:48;;;;;;;;;;;;;;;20.09;37.07;95462.06;10507992;28;1897;-66
2024/03/06 00:54:49;;;;;;;;;;;;;;;20.09;36.97;95459.41;10497044;28;2905;-67
2024/03/06 00:59:49;;;;;;;;;;;;;;;20.08;37.06;95451.81;10508359;28;2102;-66
2024/03/06 01:04:49;;;;;;;;;;;;;;;20.06;36.83;95457.34;10514777;28;2018;-68
2024/03/06 01:09:49;;;;;;;;;;;;;;;20.05;36.99;95465.53;10510169;28;1980;-67
2024/03/06 01:14:50;;;;;;;;;;;;;;;20.04;37.04;95461.31;10504454;28;2364;-66
2024/03/06 01:19:50;;;;;;;;;;;;;;;20.03;36.94;95457.91;10510671;28;1972;-67
2024/03/06 01:24:53;;;;;;;;;;;;;;;20.03;36.72;95446.59;10504157;28;2066;-67
2024/03/06 01:29:53;;;;;;;;;;;;;;;20.01;36.75;95446.09;10503605;28;1947;-67
2024/03/06 01:34:54;;;;;;;;;;;;;;;20.00;36.88;95447.16;10504713;28;1930;-68
2024/03/06 01:39:54;;;;;;;;;;;;;;;19.99;36.79;95442.97;10510986;28;1910;-66
2024/03/06 01:44:54;;;;;;;;;;;;;;;19.97;36.91;95440.59;10516848;28;2002;-66
2024/03/06 01:49:55;;;;;;;;;;;;;;;19.96;36.79;95441.66;10512222;28;2399;-67
2024/03/06 01:54:56;;;;;;;;;;;;;;;19.95;36.95;95440.06;10525946;28;2028;-66
2024/03/06 01:59:56;;;;;;;;;;;;;;;19.93;36.95;95431.69;10512179;28;1990;-67
2024/03/06 02:04:59;;;;;;;;;;;;;;;19.92;36.77;95430.13;10512769;28;1966;-66
2024/03/06 02:09:59;;;;;;;;;;;;;;;19.93;36.66;95428.25;10513481;28;2009;-67
2024/03/06 02:15:00;;;;;;;;;;;;;;;19.90;36.83;95416.47;10514216;28;1899;-66
2024/03/06 02:20:01;;;;;;;;;;;;;;;19.86;36.89;95406.75;10515561;28;1975;-68
2024/03/06 02:25:01;;;;;;;;;;;;;;;19.89;36.81;95411.47;10522667;28;2061;-67
2024/03/06 02:30:01;;;;;;;;;;;;;;;19.89;36.63;95411.47;10512064;28;2556;-66
2024/03/06 02:35:03;;;;;;;;;;;;;;;19.88;36.66;95415.16;10519068;28;1862;-66
2024/03/06 02:40:06;;;;;;;;;;;;;;;19.86;36.66;95417.28;10518466;28;2121;-67
2024/03/06 02:45:07;;;;;;;;;;;;;;;19.86;36.75;95417.28;10508145;28;1997;-66
2024/03/06 02:50:07;;;;;;;;;;;;;;;19.85;36.60;95421.75;10519607;28;1873;-67
2024/03/06 02:55:08;;;;;;;;;;;;;;;19.84;36.88;95414.16;10522913;28;1908;-66
2024/03/06 03:00:12;;;;;;;;;;;;;;;19.83;36.71;95420.47;10526047;28;1910;-68
2024/03/06 03:05:13;;;;;;;;;;;;;;;19.81;36.72;95418.13;10529552;28;2035;-69
2024/03/06 03:10:13;;;;;;;;;;;;;;;19.81;36.68;95427.84;10517763;28;1971;-68
2024/03/06 03:15:13;;;;;;;;;;;;;;;19.80;36.94;95421.03;10517646;28;2041;-67
2024/03/06 03:20:16;;;;;;;;;;;;;;;19.79;36.69;95424.69;10513646;28;1930;-67
2024/03/06 03:25:16;;;;;;;;;;;;;;;19.78;36.72;95425.78;10516303;28;1951;-67
2024/03/06 03:30:17;;;;;;;;;;;;;;;19.77;36.69;95434.72;10507421;28;2498;-67
2024/03/06 03:35:20;;;;;;;;;;;;;;;19.75;36.70;95437.63;10508935;28;2061;-67
2024/03/06 03:40:21;;;;;;;;;;;;;;;19.76;36.58;95443.69;10514508;28;1969;-67
2024/03/06 03:45:21;;;;;;;;;;;;;;;19.75;36.51;95444.72;10514945;28;2026;-67
2024/03/06 03:50:21;;;;;;;;;;;;;;;19.73;36.48;95441.59;10505105;28;1874;-67
2024/03/06 03:55:22;;;;;;;;;;;;;;;19.72;36.57;95438.16;10510671;28;2026;-67
2024/03/06 04:00:22;;;;;;;;;;;;;;;19.71;36.60;95441.06;10511764;28;1975;-66
2024/03/06 04:05:23;;;;;;;;;;;;;;;19.69;36.52;95446.63;10522696;28;1919;-68
2024/03/06 04:10:23;;;;;;;;;;;;;;;19.69;36.44;95448.44;10508539;28;2427;-67
2024/03/06 04:15:23;;;;;;;;;;;;;;;19.69;36.45;95453.72;10514073;28;2030;-67
2024/03/06 04:20:23;;;;;;;;;;;;;;;19.66;36.47;95455.03;10516615;28;2153;-67
2024/03/06 04:25:24;;;;;;;;;;;;;;;19.66;36.49;95462.94;10518686;28;2068;-67
2024/03/06 04:30:24;;;;;;;;;;;;;;;19.66;36.28;95459.53;10509343;28;2057;-67
2024/03/06 04:35:25;;;;;;;;;;;;;;;19.66;36.53;95464.78;10514504;28;1913;-66
2024/03/06 04:40:25;;;;;;;;;;;;;;;19.65;36.37;95463.22;10519538;28;2129;-66
2024/03/06 04:45:25;;;;;;;;;;;;;;;19.64;36.56;95472.16;10518790;28;2078;-66
2024/03/06 04:50:27;;;;;;;;;;;;;;;19.62;36.42;95475.06;10517577;28;2050;-67
2024/03/06 04:55:27;;;;;;;;;;;;;;;19.61;36.48;95478.75;10516402;28;2565;-66
2024/03/06 05:00:28;;;;;;;;;;;;;;;19.61;36.37;95483.22;10496786;28;2071;-68
2024/03/06 05:05:29;;;;;;;;;;;;;;;19.60;36.46;95485.06;10522845;28;1978;-67
2024/03/06 05:10:29;;;;;;;;;;;;;;;19.60;36.46;95490.31;10525201;28;2143;-67
2024/03/06 05:15:29;;;;;;;;;;;;;;;19.66;36.48;95506.88;10517182;28;2069;-67
2024/03/06 05:20:31;;;;;;;;;;;;;;;19.70;36.62;95507.88;10505314;28;1974;-66
2024/03/06 05:25:31;;;;;;;;;;;;;;;19.78;36.26;95509.94;10503514;28;2169;-67
2024/03/06 05:30:31;;;;;;;;;;;;;;;19.84;36.22;95514.91;10510884;28;2078;-67
2024/03/06 05:35:31;;;;;;;;;;;;;;;19.90;35.98;95518.25;10513489;28;2661;-67
2024/03/06 05:40:37;;;;;;;;;;;;;;;19.94;35.84;95524.53;10508149;28;2014;-69
2024/03/06 05:45:38;;;;;;;;;;;;;;;20.00;35.56;95524.25;10502070;28;1970;-70
2024/03/06 05:50:39;;;;;;;;;;;;;;;20.04;35.55;95535.00;10513177;28;2037;-68
2024/03/06 05:55:39;;;;;;;;;;;;;;;20.08;35.66;95534.16;10507715;28;2157;-64
2024/03/06 06:00:39;;;;;;;;;;;;;;;20.12;35.45;95539.66;10522663;28;2012;-62
2024/03/06 06:05:40;;;;;;;;;;;;;;;20.15;35.22;95547.03;10519838;28;2036;-62
2024/03/06 06:10:43;;;;;;;;;;;;;;;20.19;34.87;95550.66;10502986;28;2068;-62
2024/03/06 06:15:43;;;;;;;;;;;;;;;20.20;35.25;95557.53;10506246;28;2006;-62
2024/03/06 06:20:43;;;;;;;;;;;;;;;20.22;35.37;95556.19;10507347;28;2584;-63
2024/03/06 06:25:43;;;;;;;;;;;;;;;20.28;34.94;95572.72;10518387;28;1933;-63
2024/03/06 06:30:44;;;;;;;;;;;;;;;20.32;34.81;95578.25;10518572;28;2030;-63
2024/03/06 06:35:44;;;;;;;;;;;;;;;20.35;34.99;95581.09;10513147;28;2132;-63
2024/03/06 06:40:44;;;;;;;;;;;;;;;20.40;34.83;95577.66;10525133;28;1953;-63
2024/03/06 06:45:44;;;;;;;;;;;;;;;20.36;34.96;95577.38;10518164;28;1928;-65
2024/03/06 06:50:47;;;;;;;;;;;;;;;20.38;34.98;95577.91;10513103;28;2115;-63
2024/03/06 06:55:48;;;;;;;;;;;;;;;20.41;34.61;95585.25;10508034;28;2030;-63
2024/03/06 07:00:48;;;;;;;;;;;;;;;20.43;35.01;95583.13;10516324;28;1976;-63
2024/03/06 07:05:48;;;;;;;;;;;;;;;20.46;35.07;95587.88;10512271;28;2593;-63
2024/03/06 07:10:48;;;;;;;;;;;;;;;20.48;34.54;95588.38;10503789;28;2046;-62
2024/03/06 07:15:49;;;;;;;;;;;;;;;20.53;34.53;95592.78;10514917;28;2073;-63
2024/03/06 07:20:49;;;;;;;;;;;;;;;20.52;34.62;95604.41;10506854;28;1973;-62
2024/03/06 07:25:49;;;;;;;;;;;;;;;20.54;34.39;95605.69;10514286;28;1975;-62
2024/03/06 07:30:49;;;;;;;;;;;;;;;20.54;34.48;95603.06;10512247;28;2008;-63
2024/03/06 07:35:50;;;;;;;;;;;;;;;20.55;34.44;95612.53;10518024;28;2053;-63
2024/03/06 07:40:50;;;;;;;;;;;;;;;20.56;34.46;95614.09;10512374;28;1988;-63
2024/03/06 07:45:51;;;;;;;;;;;;;;;20.60;34.45;95619.59;10515695;28;2566;-64
2024/03/06 07:50:51;;;;;;;;;;;;;;;20.59;34.27;95623.28;10511052;28;1880;-65
2024/03/06 07:55:51;;;;;;;;;;;;;;;20.62;34.58;95625.38;10513288;28;1952;-62
2024/03/06 08:00:55;;;;;;;;;;;;;;;20.60;34.48;95627.50;10512235;28;2057;-65
2024/03/06 08:05:55;;;;;;;;;;;;;;;20.63;34.30;95635.63;10500755;28;1992;-64
2024/03/06 08:10:58;;;;;;;;;;;;;;;20.63;33.92;95635.63;10515764;28;1883;-63
2024/03/06 08:15:59;;;;;;;;;;;;;;;20.64;34.08;95637.22;10508570;28;2096;-68
2024/03/06 08:20:59;;;;;;;;;;;;;;;20.65;34.05;95644.03;10512627;28;2032;-65
2024/03/06 08:26:00;;;;;;;;;;;;;;;20.67;33.96;95649.81;10504729;28;2645;-65
2024/03/06 08:31:00;;;;;;;;;;;;;;;20.69;34.08;95647.69;10512877;28;2088;-65
2024/03/06 08:36:00;;;;;;;;;;;;;;;20.69;34.18;95652.94;10514244;28;1951;-64
2024/03/06 08:41:00;;;;;;;;;;;;;;;20.71;33.82;95657.97;10502959;28;2096;-65
2024/03/06 08:46:01;;;;;;;;;;;;;;;20.70;33.83;95665.06;10524195;28;1859;-65
2024/03/06 08:51:01;;;;;;;;;;;;;;;20.70;33.84;95662.44;10514201;28;1862;-65
2024/03/06 08:56:01;;;;;;;;;;;;;;;20.73;33.66;95664.50;10513667;28;2092;-65
2024/03/06 09:01:01;;;;;;;;;;;;;;;20.73;33.93;95674.28;10524507;28;1972;-65
2024/03/06 09:06:02;;;;;;;;;;;;;;;20.73;33.72;95674.28;10510560;28;1934;-64
2024/03/06 09:11:03;;;;;;;;;;;;;;;20.76;33.73;95674.50;10504994;28;1990;-64
2024/03/06 09:16:03;;;;;;;;;;;;;;;20.72;33.63;95686.66;10509043;28;2110;-63
2024/03/06 09:21:04;;;;;;;;;;;;;;;20.72;33.48;95693.78;10509461;28;2692;-64
2024/03/06 09:26:05;;;;;;;;;;;;;;;20.72;33.50;95694.56;10504279;28;2305;-63
2024/03/06 09:31:07;;;;;;;;;;;;;;;20.76;33.45;95700.84;10521276;28;1914;-62
2024/03/06 09:36:10;;;;;;;;;;;;;;;20.75;33.49;95698.50;10510129;28;1988;-64
2024/03/06 09:41:10;;;;;;;;;;;;;;;20.77;33.51;95699.78;10511950;28;1910;-65
2024/03/06 09:46:10;;;;;;;;;;;;;;;20.77;33.99;95702.41;10508106;28;2231;-64
2024/03/06 09:51:13;;;;;;;;;;;;;;;20.80;33.64;95708.97;10511429;28;1898;-65
2024/03/06 09:56:13;;;;;;;;;;;;;;;20.80;33.45;95709.78;10517100;28;1906;-65
2024/03/06 10:01:14;;;;;;;;;;;;;;;20.84;33.31;95716.06;10521921;28;2008;-64
2024/03/06 10:06:14;;;;;;;;;;;;;;;20.82;33.43;95720.81;10522732;28;2112;-65
2024/03/06 10:11:17;;;;;;;;;;;;;;;20.83;33.53;95724.25;10518617;28;1900;-64
2024/03/06 10:16:17;;;;;;;;;;;;;;;20.84;33.46;95725.81;10517514;28;2821;-65
2024/03/06 10:21:17;;;;;;;;;;;;;;;20.83;33.71;95727.69;10519321;28;1934;-65
2024/03/06 10:26:19;;;;;;;;;;;;;;;20.83;33.34;95732.94;10515277;28;1885;-65
2024/03/06 10:31:26;;;;;;;;;;;;;;;20.84;33.72;95745.03;10517508;28;2090;-65
2024/03/06 10:36:27;;;;;;;;;;;;;;;20.86;33.68;95737.66;10511574;28;1849;-67
2024/03/06 10:41:28;;;;;;;;;;;;;;;20.87;33.46;95741.88;10514093;28;1966;-64
2024/03/06 10:46:28;;;;;;;;;;;;;;;20.89;33.71;95747.66;10520304;28;1892;-65
2024/03/06 10:51:29;;;;;;;;;;;;;;;20.89;33.24;95744.22;10517195;28;1939;-64
2024/03/06 10:56:30;;;;;;;;;;;;;;;20.91;33.24;95750.81;10509819;28;2350;-65
2024/03/06 11:01:33;;;;;;;;;;;;;;;20.93;33.40;95747.88;10520339;28;2127;-64
2024/03/06 11:06:34;;;;;;;;;;;;;;;20.92;33.71;95752.34;10519173;28;1966;-65
2024/03/06 11:11:39;;;;;;;;;;;;;;;20.92;33.44;95748.94;10513678;28;2029;-65
2024/03/06 11:16:59;;;;;;;;;;;;;;;20.92;33.16;95756.84;10525130;28;1984;-64
2024/03/06 11:21:59;;;;;;;;;;;;;;;20.94;33.35;95765.25;10516175;28;1906;-65
2024/03/06 11:27:05;;;;;;;;;;;;;;;20.92;33.13;95755.00;10510432;28;1934;-65
2024/03/06 11:32:09;;;;;;;;;;;;;;;20.92;33.30;95752.34;10512977;28;1916;-65
2024/03/06 11:37:09;;;;;;;;;;;;;;;20.94;33.36;95757.34;10510407;28;2077;-64
2024/03/06 11:42:11;;;;;;;;;;;;;;;20.96;33.27;95756.00;10509879;28;1897;-65
2024/03/06 11:47:11;;;;;;;;;;;;;;;20.96;33.35;95755.22;10519269;28;1890;-65
2024/03/06 11:52:14;;;;;;;;;;;;;;;20.96;33.39;95761.28;10519968;28;2659;-65
2024/03/06 11:57:16;;;;;;;;;;;;;;;20.97;32.98;95764.72;10510555;28;2047;-65
2024/03/06 12:02:16;;;;;;;;;;;;;;;20.99;33.10;95767.84;10509454;28;1979;-65
2024/03/06 12:07:16;;;;;;;;;;;;;;;21.00;33.10;95764.94;10511728;28;1978;-65
2024/03/06 12:12:16;;;;;;;;;;;;;;;20.99;33.03;95768.66;10506116;28;1926;-65
2024/03/06 12:17:18;;;;;;;;;;;;;;;20.98;33.38;95767.06;10510843;28;2007;-65
2024/03/06 12:22:19;;;;;;;;;;;;;;;20.98;33.00;95777.59;10510220;28;2018;-65
2024/03/06 12:27:21;;;;;;;;;;;;;;;21.02;33.01;95778.66;10509530;28;2025;-65
2024/03/06 12:32:26;;;;;;;;;;;;;;;21.00;33.11;95772.06;10510109;28;1991;-66
2024/03/06 12:37:31;;;;;;;;;;;;;;;21.05;33.22;95775.50;10500270;28;2615;-65
2024/03/06 12:42:31;;;;;;;;;;;;;;;21.04;32.95;95775.78;10506129;28;1982;-64
2024/03/06 12:47:31;;;;;;;;;;;;;;;21.05;33.15;95777.31;10511533;28;2021;-63
2024/03/06 12:52:32;;;;;;;;;;;;;;;21.06;32.87;95777.03;10505003;28;2465;-64
2024/03/06 12:57:32;;;;;;;;;;;;;;;21.05;33.07;95788.66;10511048;28;2129;-65
2024/03/06 13:02:32;;;;;;;;;;;;;;;21.04;32.89;95787.06;10521181;28;2086;-65
2024/03/06 13:07:33;;;;;;;;;;;;;;;21.04;32.78;95781.81;10504589;28;2104;-65
2024/03/06 13:12:33;;;;;;;;;;;;;;;21.05;32.92;95780.75;10502173;28;1934;-65
2024/03/06 13:17:33;;;;;;;;;;;;;;;21.02;32.84;95793.69;10519891;28;1903;-65
2024/03/06 13:22:34;;;;;;;;;;;;;;;21.03;32.95;95800.53;10511384;28;2478;-68
2024/03/06 13:27:34;;;;;;;;;;;;;;;20.99;32.72;95778.41;10510284;28;1902;-65
2024/03/06 13:32:34;;;;;;;;;;;;;;;20.99;32.74;95773.94;10515461;28;2038;-66
2024/03/06 13:37:35;;;;;;;;;;;;;;;20.99;32.24;95773.13;10498965;28;2229;-66
2024/03/06 13:42:35;;;;;;;;;;;;;;;20.98;32.78;95772.34;10508213;28;1969;-65
2024/03/06 13:47:35;;;;;;;;;;;;;;;20.99;32.81;95779.19;10502651;28;2096;-64
2024/03/06 13:52:36;;;;;;;;;;;;;;;20.95;33.06;95778.16;10512389;28;1900;-66
2024/03/06 13:57:37;;;;;;;;;;;;;;;20.94;33.11;95778.44;10511597;28;2059;-65
2024/03/06 14:02:37;;;;;;;;;;;;;;;20.88;33.82;95784.78;10505907;28;1986;-65
2024/03/06 14:07:38;;;;;;;;;;;;;;;20.87;33.26;95777.97;10503734;28;2453;-65
2024/03/06 14:12:38;;;;;;;;;;;;;;;20.83;33.61;95784.84;10505410;28;1978;-65
2024/03/06 14:17:39;;;;;;;;;;;;;;;20.83;33.11;95787.47;10504566;28;2109;-65
2024/03/06 14:22:40;;;;;;;;;;;;;;;20.78;33.32;95785.66;10503656;28;1951;-66
2024/03/06 14:27:40;;;;;;;;;;;;;;;20.78;33.21;95777.75;10502618;28;1934;-65
2024/03/06 14:32:40;;;;;;;;;;;;;;;20.75;33.87;95782.78;10515722;28;2104;-65
2024/03/06 14:37:41;;;;;;;;;;;;;;;20.66;33.92;95793.13;10507768;28;1927;-65
2024/03/06 14:42:41;;;;;;;;;;;;;;;20.67;34.18;95797.31;10521584;28;2003;-65
2024/03/06 14:47:42;;;;;;;;;;;;;;;20.67;33.97;95802.56;10514071;28;1935;-66
2024/03/06 14:52:42;;;;;;;;;;;;;;;20.70;33.40;95807.31;10513678;28;2582;-64
2024/03/06 14:57:43;;;;;;;;;;;;;;;20.69;33.21;95803.09;10512997;28;2081;-64
2024/03/06 15:02:43;;;;;;;;;;;;;;;20.71;33.03;95811.50;10522163;28;1984;-65
2024/03/06 15:07:43;;;;;;;;;;;;;;;20.72;33.36;95809.66;10518738;28;2014;-65
2024/03/06 15:12:44;;;;;;;;;;;;;;;20.71;33.22;95811.50;10525158;28;2050;-66
2024/03/06 15:17:46;;;;;;;;;;;;;;;20.74;33.21;95813.59;10513991;28;1949;-65
2024/03/06 15:22:47;;;;;;;;;;;;;;;20.77;33.38;95813.06;10514049;28;1940;-66
2024/03/06 15:27:47;;;;;;;;;;;;;;;20.79;32.73;95824.09;10519733;28;2230;-66
2024/03/06 15:32:50;;;;;;;;;;;;;;;20.82;33.12;95820.94;10504702;28;1946;-65
2024/03/06 15:37:50;;;;;;;;;;;;;;;20.86;33.09;95829.88;10519157;28;2054;-65
2024/03/06 15:42:50;;;;;;;;;;;;;;;20.85;32.82;95827.50;10522848;28;1921;-65
2024/03/06 15:47:51;;;;;;;;;;;;;;;20.88;32.95;95825.13;10517094;28;2349;-65
2024/03/06 15:52:51;;;;;;;;;;;;;;;20.87;32.78;95828.81;10526972;28;2026;-65
2024/03/06 15:57:51;;;;;;;;;;;;;;;20.89;33.14;95826.69;10519101;28;1906;-64
2024/03/06 16:02:52;;;;;;;;;;;;;;;20.90;32.92;95833.53;10523431;28;2282;-65
2024/03/06 16:07:55;;;;;;;;;;;;;;;20.90;32.89;95838.00;10503853;28;1970;-65
2024/03/06 16:12:55;;;;;;;;;;;;;;;20.91;32.79;95836.97;10507929;28;2038;-65
2024/03/06 16:17:56;;;;;;;;;;;;;;;20.95;32.91;95845.88;10519081;28;1878;-65
2024/03/06 16:22:57;;;;;;;;;;;;;;;20.98;32.92;95848.75;10505965;28;2332;-65
2024/03/06 16:27:57;;;;;;;;;;;;;;;20.94;32.62;95853.00;10521324;28;1870;-65
2024/03/06 16:32:57;;;;;;;;;;;;;;;20.94;32.93;95855.63;10517248;28;1907;-65
2024/03/06 16:37:58;;;;;;;;;;;;;;;20.94;32.67;95858.28;10523704;28;1947;-65
2024/03/06 16:42:58;;;;;;;;;;;;;;;20.95;32.58;95867.75;10504967;28;2334;-65
2024/03/06 16:47:59;;;;;;;;;;;;;;;20.95;32.57;95867.75;10511903;28;1982;-64
2024/03/06 16:53:00;;;;;;;;;;;;;;;20.98;32.88;95874.31;10507456;28;1862;-65
2024/03/06 16:58:00;;;;;;;;;;;;;;;21.01;32.56;95871.94;10513899;28;2117;-65
2024/03/06 17:03:02;;;;;;;;;;;;;;;21.00;32.46;95880.91;10514172;28;1960;-65
2024/03/06 17:08:03;;;;;;;;;;;;;;;21.00;32.60;95883.53;10513040;28;1998;-66
2024/03/06 17:13:03;;;;;;;;;;;;;;;21.00;32.54;95886.16;10512038;28;1919;-65
2024/03/06 17:18:04;;;;;;;;;;;;;;;21.02;32.44;95888.56;10505798;28;2020;-65
2024/03/06 17:23:04;;;;;;;;;;;;;;;21.03;32.50;95893.56;10503223;28;2003;-64
2024/03/06 17:28:09;;;;;;;;;;;;;;;21.02;32.77;95902.53;10506699;28;1982;-65
2024/03/06 17:33:09;;;;;;;;;;;;;;;21.10;32.01;95900.38;10512640;28;2134;-64
2024/03/06 17:38:10;;;;;;;;;;;;;;;21.08;32.25;95902.50;10505404;28;2374;-65
2024/03/06 17:43:13;;;;;;;;;;;;;;;21.12;31.57;95906.19;10494430;28;1947;-65
2024/03/06 17:48:14;;;;;;;;;;;;;;;21.10;31.68;95909.09;10501879;28;2109;-64
2024/03/06 17:53:14;;;;;;;;;;;;;;;21.02;31.99;95915.69;10504784;28;1970;-65
2024/03/06 17:58:14;;;;;;;;;;;;;;;20.98;32.26;95922.53;10507776;28;1948;-65
2024/03/06 18:03:15;;;;;;;;;;;;;;;20.86;32.75;95926.56;10508992;28;1976;-65
2024/03/06 18:08:15;;;;;;;;;;;;;;;20.85;32.68;95931.06;10497656;28;2056;-64
2024/03/06 18:13:16;;;;;;;;;;;;;;;20.83;32.95;95935.81;10499893;28;2117;-63
2024/03/06 18:18:16;;;;;;;;;;;;;;;20.74;33.22;95940.06;10515656;28;2534;-66
2024/03/06 18:23:16;;;;;;;;;;;;;;;20.67;33.19;95934.28;10508338;28;2010;-65
2024/03/06 18:28:17;;;;;;;;;;;;;;;20.64;33.08;95937.47;10514529;28;2026;-65
2024/03/06 18:33:17;;;;;;;;;;;;;;;20.77;32.88;95933.47;10515216;28;1939;-66
2024/03/06 18:38:18;;;;;;;;;;;;;;;20.76;33.17;95932.66;10513753;28;2067;-65
2024/03/06 18:43:18;;;;;;;;;;;;;;;20.79;33.20;95932.13;10508034;28;2022;-65
2024/03/06 18:48:18;;;;;;;;;;;;;;;20.84;33.02;95939.22;10508885;28;2104;-65
2024/03/06 18:53:19;;;;;;;;;;;;;;;20.87;33.28;95943.97;10502781;28;2033;-65
2024/03/06 18:58:20;;;;;;;;;;;;;;;20.90;33.16;95954.75;10515810;28;2051;-65
2024/03/06 19:03:21;;;;;;;;;;;;;;;20.92;33.20;95947.34;10512499;28;2268;-65
2024/03/06 19:08:21;;;;;;;;;;;;;;;20.95;33.06;95951.31;10523034;28;2012;-65
2024/03/06 19:13:21;;;;;;;;;;;;;;;20.99;33.13;95955.75;10512316;28;1979;-66
2024/03/06 19:18:21;;;;;;;;;;;;;;;21.01;33.32;95953.66;10512108;28;1951;-65
2024/03/06 19:23:22;;;;;;;;;;;;;;;21.02;33.07;95955.22;10508774;28;1995;-66
2024/03/06 19:28:22;;;;;;;;;;;;;;;21.04;33.00;95960.25;10509290;28;2104;-65
2024/03/06 19:33:23;;;;;;;;;;;;;;;21.03;32.72;95959.47;10507830;28;1878;-63
2024/03/06 19:38:24;;;;;;;;;;;;;;;21.04;32.79;95963.66;10506070;28;1949;-65
2024/03/06 19:43:25;;;;;;;;;;;;;;;21.04;32.59;95961.03;10507242;28;2109;-63
2024/03/06 19:48:26;;;;;;;;;;;;;;;21.05;32.71;95957.34;10508483;28;2301;-64
2024/03/06 19:53:26;;;;;;;;;;;;;;;21.05;32.58;95957.34;10510156;28;2057;-65
2024/03/06 19:58:26;;;;;;;;;;;;;;;21.11;32.94;95959.94;10502324;28;2084;-68
2024/03/06 20:03:27;;;;;;;;;;;;;;;21.10;33.25;95963.66;10515915;28;2224;-64
2024/03/06 20:08:27;;;;;;;;;;;;;;;21.08;32.98;95967.31;10509961;28;2000;-63
2024/03/06 20:13:28;;;;;;;;;;;;;;;21.12;32.82;95966.81;10506678;28;1956;-65
2024/03/06 20:18:28;;;;;;;;;;;;;;;21.10;32.71;95969.72;10516142;28;1972;-65
2024/03/06 20:23:28;;;;;;;;;;;;;;;21.10;32.31;95980.25;10507374;28;1975;-63
2024/03/06 20:28:28;;;;;;;;;;;;;;;21.08;32.85;95972.59;10512869;28;1899;-63
2024/03/06 20:33:31;;;;;;;;;;;;;;;21.12;32.98;95977.34;10510433;28;2058;-65
2024/03/06 20:38:32;;;;;;;;;;;;;;;21.15;33.71;95974.94;10503534;28;2099;-66
2024/03/06 20:43:38;;;;;;;;;;;;;;;21.14;32.68;95975.22;10509870;28;2316;-66
2024/03/06 20:48:39;;;;;;;;;;;;;;;21.08;32.62;95976.31;10514940;28;2049;-66
2024/03/06 20:53:39;;;;;;;;;;;;;;;21.01;32.65;95976.56;10506614;28;2088;-66
2024/03/06 20:58:39;;;;;;;;;;;;;;;20.98;33.00;95972.63;10505182;28;2053;-66
2024/03/06 21:03:39;;;;;;;;;;;;;;;20.93;33.27;95975.28;10505660;28;2024;-66
2024/03/06 21:08:40;;;;;;;;;;;;;;;20.95;33.91;95982.91;10515059;28;2104;-66
2024/03/06 21:13:40;;;;;;;;;;;;;;;20.97;33.43;95970.25;10505618;28;1998;-67
2024/03/06 21:18:42;;;;;;;;;;;;;;;20.97;33.57;95970.25;10509296;28;1978;-66
2024/03/06 21:23:42;;;;;;;;;;;;;;;20.96;34.32;95966.81;10504174;28;2081;-66
2024/03/06 21:28:45;;;;;;;;;;;;;;;20.95;34.08;95970.53;10505378;28;2116;-66
2024/03/06 21:33:45;;;;;;;;;;;;;;;20.90;34.13;95962.66;10501741;28;3225;-66
2024/03/06 21:38:46;;;;;;;;;;;;;;;20.91;33.63;95958.16;10500038;28;1999;-66
2024/03/06 21:43:46;;;;;;;;;;;;;;;20.85;35.11;95964.53;10498177;28;2130;-66
2024/03/06 21:48:47;;;;;;;;;;;;;;;20.82;34.77;95962.41;10508585;28;2077;-66
2024/03/06 21:53:47;;;;;;;;;;;;;;;20.79;34.98;95969.00;10516583;28;1967;-66
2024/03/06 21:58:49;;;;;;;;;;;;;;;20.79;34.27;95963.72;10524922;28;2287;-65
2024/03/06 22:03:49;;;;;;;;;;;;;;;20.73;34.63;95964.81;10518333;28;2050;-67
2024/03/06 22:08:50;;;;;;;;;;;;;;;20.70;34.98;95965.38;10531073;28;1970;-68
2024/03/06 22:13:50;;;;;;;;;;;;;;;20.70;34.31;95965.38;10520293;28;2077;-68
2024/03/06 22:18:52;;;;;;;;;;;;;;;20.66;34.42;95968.78;10517792;28;1984;-68
2024/03/06 22:23:52;;;;;;;;;;;;;;;20.63;35.18;95964.84;10526620;28;2263;-70
2024/03/06 22:28:52;;;;;;;;;;;;;;;20.62;34.88;95967.75;10520444;28;2339;-68
2024/03/06 22:33:53;;;;;;;;;;;;;;;20.58;34.50;95967.50;10524145;28;2003;-67
2024/03/06 22:38:53;;;;;;;;;;;;;;;20.54;35.04;95968.31;10522566;28;1962;-68
2024/03/06 22:43:53;;;;;;;;;;;;;;;20.50;35.05;95968.06;10516984;28;2103;-68
2024/03/06 22:48:54;;;;;;;;;;;;;;;20.47;35.38;95970.41;10523942;28;2294;-68
2024/03/06 22:53:54;;;;;;;;;;;;;;;20.46;35.34;95976.75;10516852;28;2046;-68
2024/03/06 22:58:54;;;;;;;;;;;;;;;20.41;35.62;95974.91;10531255;28;1846;-67
2024/03/06 23:03:55;;;;;;;;;;;;;;;20.40;35.33;95977.81;10502068;28;1984;-67
2024/03/06 23:08:55;;;;;;;;;;;;;;;20.36;35.84;95980.19;10519376;28;1865;-68
2024/03/06 23:13:56;;;;;;;;;;;;;;;20.36;34.61;95974.91;10511097;28;2582;-68
2024/03/06 23:18:56;;;;;;;;;;;;;;;20.34;35.04;95978.91;10513763;28;1948;-68
2024/03/06 23:23:56;;;;;;;;;;;;;;;20.31;35.29;95974.94;10514054;28;2696;-68
2024/03/06 23:28:56;;;;;;;;;;;;;;;20.28;35.42;95972.81;10501344;28;1861;-68
2024/03/06 23:33:57;;;;;;;;;;;;;;;20.25;35.09;95976.81;10518740;28;2045;-68
2024/03/06 23:38:57;;;;;;;;;;;;;;;20.24;34.98;95966.53;10517212;28;2030;-67
2024/03/06 23:43:57;;;;;;;;;;;;;;;20.21;35.47;95972.31;10514901;28;1964;-68
2024/03/06 23:48:57;;;;;;;;;;;;;;;20.19;34.67;95969.16;10519512;28;1936;-68
2024/03/06 23:53:58;;;;;;;;;;;;;;;20.17;34.83;95976.53;10508584;28;2100;-68
2024/03/06 23:58:58;;;;;;;;;;;;;;;20.17;34.80;95966.00;10510777;28;2307;-68
